This is the latest recevied weather packets stored in our database for station/object OE-2002. If no packets are shown the sender has not sent any weather packets the latest 10 day(s).
| Time | Temp. | Humidity | Pressure | Rain* | Wind** | Luminosity | Snow |
|---|---|---|---|---|---|---|---|
| 1787908266 | 30° C | 45% | 1009.2 hPa | - | - | - | - |
| 1787906466 | 28.33° C | 49% | 1009.4 hPa | - | - | - | - |
| 1787904667 | 27.22° C | 52% | 1009.6 hPa | - | - | - | - |
| 1787902866 | 26.11° C | 54% | 1010.8 hPa | - | - | - | - |
| 1787901066 | 25.56° C | 56% | 1011 hPa | - | - | - | - |
| 1787899266 | 24.44° C | 58% | 1011.1 hPa | - | - | - | - |
| 1787897466 | 23.89° C | 60% | 1011.2 hPa | - | - | - | - |
| 1787895666 | 22.78° C | 62% | 1011.4 hPa | - | - | - | - |
| 1787893867 | 21.67° C | 65% | 1011.6 hPa | - | - | - | - |
| 1787892066 | 21.11° C | 65% | 1011.7 hPa | - | - | - | - |
| 1787890266 | 21.11° C | 65% | 1011.7 hPa | - | - | - | - |
| 1787886666 | 21.67° C | 65% | 1011.6 hPa | - | - | - | - |
| 1787884867 | 21.67° C | 64% | 1011.6 hPa | - | - | - | - |
| 1787883067 | 21.67° C | 67% | 1011.6 hPa | - | - | - | - |
| 1787881267 | 22.78° C | 64% | 1011.4 hPa | - | - | - | - |
| 1787879466 | 23.89° C | 58% | 1011.2 hPa | - | - | - | - |
| 1787877666 | 23.89° C | 59% | 1011.2 hPa | - | - | - | - |
| 1787875866 | 23.89° C | 59% | 1011.2 hPa | - | - | - | - |
| 1787874066 | 23.89° C | 61% | 1012.3 hPa | - | - | - | - |
| 1787870467 | 22.22° C | 71% | 1012.6 hPa | - | - | - | - |
| 1787868667 | 21.67° C | 78% | 1012.7 hPa | - | - | - | - |
| 1787866867 | 22.22° C | 76% | 1013.6 hPa | - | - | - | - |
| 1787865067 | 23.33° C | 74% | 1013.4 hPa | - | - | - | - |
| 1787863267 | 23.89° C | 73% | 1013.4 hPa | - | - | - | - |
| 1787861467 | 23.89° C | 72% | 1013.3 hPa | - | - | - | - |
* Rain since midnight (hover to see other rain measurements)
** Current wind speed in m/s (hover to see current wind gust speed)